EIKNEIDW

Guest
Details From EIKN - Connaught (knock)
To EIDW - Dublin
Flight Number -
Tags Routegen
Created
Modified
Stats Distance 95 nm / 176 km
Max Altitude 0 ft / 0 m
Waypoints 2
Social Downloads 1
Likes 0
Share VATSIM

Download

Looking for another format? Having issues loading an existing format? Contact us
Advertisement - Login to hide

Notes

None

Route

EIKN EIDW

ID Type Via Altitude Latitude Longitude Leg Dist Tot Dist Heading (true) Name
O EIKN APT - 0 ft / 0 m 53.90828˚ -8.83565˚ - 0 nm - -
O EIDW APT - 0 ft / 0 m 53.42243˚ -6.29007˚ 95 nm 95 nm 107° / 109° -

Altitude Profile

Advertisement - Login to hide

EIKN

Details ICAO EIKN (NOC)
Name Ireland West Airport Knock
Region Ireland
Timezone Europe/Dublin (UTC+0.0)
Stats Elevation 665 ft / 203 m (AMSL)
Location 53.910306° -8.818474°
Runways 1
Magnetic Variation 4.162° W

METAR

EIKN 150800Z 35010KT 9999 FEW039 04/01 Q1008 NOSIG

Decode

TAF

Not found

Departure Runways

ID Width Length Bearing (true) Bearing (mag) Surface Threshold Offset Overrun Length
09 148 ft / 45 m 7,513 ft / 2,290 m 78.74° 82.90° Asphalt 482 ft / 147 m 0 ft / 0 m
27 148 ft / 45 m 7,513 ft / 2,290 m 258.76° 262.92° Asphalt 0 ft / 0 m 0 ft / 0 m

EIDW

Details ICAO EIDW (DUB)
Name Dublin
Region Ireland
Timezone Europe/Dublin (UTC+0.0)
Stats Elevation 242 ft / 74 m (AMSL)
Location 53.428264° -6.259550°
Runways 3
Magnetic Variation 3.023° W

METAR

EIDW 150800Z 32015KT 9999 FEW012 SCT020 BKN040 05/03 Q1003 NOSIG

Decode

TAF

Not found

Destination Runways

ID Width Length Bearing (true) Bearing (mag) Surface Threshold Offset Overrun Length
10 148 ft / 45 m 8,625 ft / 2,629 m 95.25° 98.27° Concrete 0 ft / 0 m 0 ft / 0 m
11 200 ft / 61 m 4,380 ft / 1,335 m 105.01° 108.03° Asphalt 279 ft / 85 m 0 ft / 0 m
16 200 ft / 61 m 6,791 ft / 2,070 m 156.64° 159.66° Asphalt 0 ft / 0 m 0 ft / 0 m
28 148 ft / 45 m 8,625 ft / 2,629 m 275.28° 278.30° Concrete 0 ft / 0 m 0 ft / 0 m
29 200 ft / 61 m 4,380 ft / 1,335 m 285.02° 288.04° Asphalt 0 ft / 0 m 0 ft / 0 m
34 200 ft / 61 m 6,791 ft / 2,070 m 336.65° 339.67° Asphalt 0 ft / 0 m 0 ft / 0 m

Approach Navaids

Runway Type Ident Frequency Range Bearing (true) Bearing (mag) Slope Elevation
10 Localiser IDE 108.90 MHz 18 nm / 33 km 95.29° 98.31° - 242 ft / 74 m (AMSL)
10 Glidescope IDE 108.90 MHz 10 nm / 19 km 95.27° 98.29° 3.00° 242 ft / 74 m (AMSL)
10 DME IDE 108.90 MHz 18 nm / 33 km - - - 200 ft / 61 m (AMSL)
16 Localiser IAC 111.50 MHz 18 nm / 33 km 156.65° 159.67° - 242 ft / 74 m (AMSL)
16 Glidescope IAC 111.50 MHz 10 nm / 19 km 156.64° 159.66° 3.00° 242 ft / 74 m (AMSL)
16 DME IAC 111.50 MHz 18 nm / 33 km - - - 200 ft / 61 m (AMSL)
28 Localiser IDW 111.35 MHz 18 nm / 33 km 275.25° 278.27° - 242 ft / 74 m (AMSL)
28 Glidescope IDW 111.35 MHz 10 nm / 19 km 275.27° 278.29° 3.00° 242 ft / 74 m (AMSL)
28 DME IDW 113.50 MHz 18 nm / 33 km - - - 200 ft / 61 m (AMSL)

Popular Alternatives